createdAt,value
2018-07-20T00:00:35.003Z,17.08
2018-07-20T00:01:34.991Z,17.12
2018-07-20T00:02:34.957Z,17.08
2018-07-20T00:03:34.870Z,17.06
2018-07-20T00:04:34.824Z,17.05
2018-07-20T00:05:34.780Z,17.01
2018-07-20T00:06:34.740Z,17.04
2018-07-20T00:07:34.732Z,17.04
2018-07-20T00:08:34.645Z,16.96
2018-07-20T00:09:34.599Z,17.01
2018-07-20T00:10:34.552Z,16.86
2018-07-20T00:11:34.511Z,16.91
2018-07-20T00:12:34.496Z,16.89
2018-07-20T00:13:34.423Z,17.04
2018-07-20T00:14:34.371Z,17.02
2018-07-20T00:15:34.359Z,16.87
2018-07-20T00:16:34.286Z,16.90
2018-07-20T00:17:34.243Z,16.90
2018-07-20T00:18:34.191Z,16.90
2018-07-20T00:19:34.146Z,16.89
2018-07-20T00:20:34.134Z,16.89
2018-07-20T00:21:34.056Z,16.79
2018-07-20T00:22:34.011Z,16.72
2018-07-20T00:23:33.963Z,16.68
2018-07-20T00:24:33.955Z,16.56
2018-07-20T00:25:33.877Z,16.56
2018-07-20T00:26:33.828Z,16.49
2018-07-20T00:27:33.784Z,16.28
2018-07-20T00:28:33.743Z,16.17
2018-07-20T00:29:33.738Z,15.84
2018-07-20T00:30:33.655Z,15.79
2018-07-20T00:31:33.605Z,15.90
2018-07-20T00:32:33.562Z,15.79
2018-07-20T00:33:33.510Z,15.83
2018-07-20T00:34:33.496Z,15.83
2018-07-20T00:35:33.420Z,16.00
2018-07-20T00:36:33.409Z,16.04
2018-07-20T00:37:33.331Z,16.02
2018-07-20T00:38:33.284Z,16.00
2018-07-20T00:39:33.238Z,15.92
2018-07-20T00:40:33.227Z,15.73
2018-07-20T00:41:33.156Z,15.83
2018-07-20T00:42:33.108Z,15.76
2018-07-20T00:43:33.057Z,15.80
2018-07-20T00:44:33.011Z,15.86
2018-07-20T00:45:33.013Z,15.76
2018-07-20T00:46:32.920Z,15.83
2018-07-20T00:47:32.880Z,15.80
2018-07-20T00:48:32.829Z,15.82
2018-07-20T00:49:32.780Z,15.83
2018-07-20T00:50:32.768Z,15.86
2018-07-20T00:51:32.688Z,15.83
2018-07-20T00:52:32.672Z,15.86
2018-07-20T00:53:32.597Z,15.84
2018-07-20T00:54:32.551Z,15.83
2018-07-20T00:55:32.506Z,15.73
2018-07-20T00:56:32.458Z,15.62
2018-07-20T00:57:32.446Z,15.59
2018-07-20T00:58:32.401Z,15.59
2018-07-20T00:59:32.325Z,15.52
2018-07-20T01:00:32.278Z,15.57
2018-07-20T01:01:32.233Z,15.47
2018-07-20T01:02:32.182Z,15.65
2018-07-20T01:03:32.166Z,15.51
2018-07-20T01:04:32.095Z,15.49
2018-07-20T01:05:32.059Z,15.54
2018-07-20T01:06:31.999Z,15.49
2018-07-20T01:07:31.997Z,15.49
2018-07-20T01:08:31.908Z,15.42
2018-07-20T01:09:31.862Z,15.49
2018-07-20T01:10:31.815Z,15.40
2018-07-20T01:11:31.773Z,15.43
2018-07-20T01:12:31.754Z,15.51
2018-07-20T01:13:31.677Z,15.44
2018-07-20T01:14:31.629Z,15.43
2018-07-20T01:15:31.623Z,15.39
2018-07-20T01:16:31.536Z,15.37
2018-07-20T01:17:31.493Z,15.33
2018-07-20T01:18:31.446Z,15.10
2018-07-20T01:19:31.398Z,15.22
2018-07-20T01:20:31.386Z,15.03
2018-07-20T01:21:31.313Z,14.92
2018-07-20T01:22:31.260Z,14.92
2018-07-20T01:23:31.215Z,14.92
2018-07-20T01:24:31.166Z,15.04
2018-07-20T01:25:31.158Z,15.06
2018-07-20T01:26:31.075Z,15.07
2018-07-20T01:27:31.060Z,15.02
2018-07-20T01:28:30.982Z,15.15
2018-07-20T01:29:30.935Z,15.07
2018-07-20T01:30:30.892Z,15.18
2018-07-20T01:31:30.881Z,15.11
2018-07-20T01:32:30.797Z,15.10
2018-07-20T01:33:30.750Z,15.17
2018-07-20T01:34:30.706Z,15.15
2018-07-20T01:35:30.656Z,15.15
2018-07-20T01:36:30.652Z,15.07
2018-07-20T01:37:30.566Z,15.04
2018-07-20T01:38:30.518Z,15.02
2018-07-20T01:39:30.474Z,15.02
2018-07-20T01:40:30.425Z,15.07
2018-07-20T01:41:30.411Z,15.02
2018-07-20T01:42:30.330Z,14.99
2018-07-20T01:43:30.288Z,15.00
2018-07-20T01:44:30.240Z,15.00
2018-07-20T01:45:30.225Z,15.10
2018-07-20T01:46:30.147Z,15.07
2018-07-20T01:47:30.102Z,15.02
2018-07-20T01:48:30.054Z,15.14
2018-07-20T01:49:30.002Z,15.02
2018-07-20T01:50:29.984Z,14.88
2018-07-20T01:51:29.914Z,14.82
2018-07-20T01:52:29.868Z,14.89
2018-07-20T01:53:29.823Z,14.85
2018-07-20T01:54:29.769Z,14.86
2018-07-20T01:55:29.766Z,14.86
2018-07-20T01:56:29.678Z,14.85
2018-07-20T01:57:29.632Z,14.82
2018-07-20T01:58:29.628Z,14.72
2018-07-20T01:59:29.542Z,14.63
2018-07-20T02:00:29.495Z,14.66
2018-07-20T02:01:29.446Z,14.62
2018-07-20T02:02:29.398Z,14.44
2018-07-20T02:03:29.388Z,14.50
2018-07-20T02:04:29.305Z,14.51
2018-07-20T02:05:29.258Z,14.44
2018-07-20T02:06:29.210Z,14.59
2018-07-20T02:07:29.166Z,14.59
2018-07-20T02:08:29.143Z,14.58
2018-07-20T02:09:29.101Z,14.54
2018-07-20T02:10:29.024Z,14.54
2018-07-20T02:11:28.980Z,14.63
2018-07-20T02:12:28.931Z,14.58
2018-07-20T02:13:28.914Z,14.59
2018-07-20T02:14:28.836Z,14.65
2018-07-20T02:15:28.790Z,14.59
2018-07-20T02:16:28.775Z,14.47
2018-07-20T02:17:28.697Z,14.51
2018-07-20T02:18:28.692Z,14.55
2018-07-20T02:19:28.602Z,14.40
2018-07-20T02:20:28.558Z,14.40
2018-07-20T02:21:28.513Z,14.41
2018-07-20T02:22:28.475Z,14.35
2018-07-20T02:23:28.443Z,14.36
2018-07-20T02:24:28.367Z,14.41
2018-07-20T02:25:28.398Z,14.45
2018-07-20T02:26:28.275Z,14.40
2018-07-20T02:27:28.232Z,14.43
2018-07-20T02:28:28.178Z,14.50
2018-07-20T02:29:28.170Z,14.51
2018-07-20T02:30:28.118Z,14.51
2018-07-20T02:31:28.037Z,14.54
2018-07-20T02:32:27.991Z,14.43
2018-07-20T02:33:27.945Z,14.51
2018-07-20T02:34:27.947Z,14.58
2018-07-20T02:35:27.850Z,14.54
2018-07-20T02:36:27.802Z,14.59
2018-07-20T02:37:27.763Z,14.66
2018-07-20T02:38:27.714Z,14.66
2018-07-20T02:39:27.691Z,14.59
2018-07-20T02:40:27.614Z,14.69
2018-07-20T02:41:27.600Z,14.66
2018-07-20T02:42:27.520Z,14.60
2018-07-20T02:43:27.472Z,14.59
2018-07-20T02:44:27.428Z,14.59
2018-07-20T02:45:27.380Z,14.58
2018-07-20T02:46:27.363Z,14.48
2018-07-20T02:47:27.293Z,14.48
2018-07-20T02:48:27.236Z,14.58
2018-07-20T02:49:27.192Z,14.53
2018-07-20T02:50:27.176Z,14.59
2018-07-20T02:51:27.095Z,14.63
2018-07-20T02:52:27.049Z,14.63
2018-07-20T02:53:27.002Z,14.70
2018-07-20T02:54:26.958Z,14.65
2018-07-20T02:55:26.941Z,14.68
2018-07-20T02:56:26.975Z,14.65
2018-07-20T02:57:26.841Z,14.66
2018-07-20T02:58:26.764Z,14.53
2018-07-20T02:59:26.721Z,14.53
2018-07-20T03:00:26.672Z,14.54
2018-07-20T03:01:26.674Z,14.55
2018-07-20T03:02:26.576Z,14.48
2018-07-20T03:03:26.540Z,14.53
2018-07-20T03:04:26.486Z,14.54
2018-07-20T03:05:26.435Z,14.51
2018-07-20T03:06:26.420Z,14.54
2018-07-20T03:07:26.341Z,14.53
2018-07-20T03:08:26.296Z,14.54
2018-07-20T03:09:26.248Z,14.50
2018-07-20T03:10:26.231Z,14.54
2018-07-20T03:11:26.152Z,14.43
2018-07-20T03:12:26.140Z,14.51
2018-07-20T03:13:26.071Z,14.59
2018-07-20T03:14:26.042Z,14.53
2018-07-20T03:15:25.965Z,14.55
2018-07-20T03:16:25.921Z,14.54
2018-07-20T03:17:25.903Z,14.50
2018-07-20T03:18:25.825Z,14.48
2018-07-20T03:19:25.776Z,14.43
2018-07-20T03:20:25.731Z,14.36
2018-07-20T03:21:25.680Z,14.36
2018-07-20T03:22:25.673Z,14.43
2018-07-20T03:23:25.585Z,14.35
2018-07-20T03:24:25.540Z,14.40
2018-07-20T03:25:25.502Z,14.43
2018-07-20T03:26:25.448Z,14.48
2018-07-20T03:27:25.439Z,14.44
2018-07-20T03:28:25.355Z,14.48
2018-07-20T03:29:25.331Z,14.36
2018-07-20T03:30:25.255Z,14.36
2018-07-20T03:31:25.211Z,14.40
2018-07-20T03:32:25.192Z,14.37
2018-07-20T03:33:25.120Z,14.35
2018-07-20T03:34:25.066Z,14.28
2018-07-20T03:35:25.019Z,14.22
2018-07-20T03:36:24.971Z,14.28
2018-07-20T03:37:24.949Z,14.26
2018-07-20T03:38:24.877Z,14.26
2018-07-20T03:39:24.864Z,14.26
2018-07-20T03:40:24.787Z,14.37
2018-07-20T03:41:24.738Z,14.23
2018-07-20T03:42:24.687Z,14.26
2018-07-20T03:43:24.647Z,14.32
2018-07-20T03:44:24.625Z,14.25
2018-07-20T03:45:24.578Z,14.17
2018-07-20T03:46:24.497Z,14.18
2018-07-20T03:47:24.450Z,14.07
2018-07-20T03:48:24.399Z,13.93
2018-07-20T03:49:24.355Z,13.79
2018-07-20T03:50:24.350Z,13.87
2018-07-20T03:51:24.260Z,13.83
2018-07-20T03:52:24.212Z,13.86
2018-07-20T03:53:24.174Z,13.79
2018-07-20T03:54:24.122Z,13.83
2018-07-20T03:55:24.116Z,13.77
2018-07-20T03:56:24.023Z,13.79
2018-07-20T03:57:23.974Z,13.92
2018-07-20T03:58:23.925Z,13.90
2018-07-20T03:59:23.882Z,13.95
2018-07-20T04:00:23.867Z,14.03
2018-07-20T04:01:23.785Z,14.05
2018-07-20T04:02:23.777Z,14.20
2018-07-20T04:03:23.694Z,14.18
2018-07-20T04:04:23.646Z,14.29
2018-07-20T04:05:23.594Z,14.37
2018-07-20T04:06:23.579Z,14.28
2018-07-20T04:07:23.500Z,14.25
2018-07-20T04:08:23.455Z,14.29
2018-07-20T04:09:23.404Z,14.23
2018-07-20T04:10:23.462Z,14.32
2018-07-20T04:11:23.343Z,14.36
2018-07-20T04:12:23.296Z,14.30
2018-07-20T04:13:23.216Z,14.41
2018-07-20T04:14:23.169Z,14.32
2018-07-20T04:15:23.126Z,14.33
2018-07-20T04:16:23.077Z,14.43
2018-07-20T04:17:23.062Z,14.33
2018-07-20T04:18:22.977Z,14.40
2018-07-20T04:19:22.929Z,14.45
2018-07-20T04:20:22.886Z,14.41
2018-07-20T04:21:22.835Z,14.44
2018-07-20T04:22:22.817Z,14.47
2018-07-20T04:23:22.773Z,14.48
2018-07-20T04:24:22.698Z,14.55
2018-07-20T04:25:22.646Z,14.55
2018-07-20T04:26:22.601Z,14.72
2018-07-20T04:27:22.549Z,14.69
2018-07-20T04:28:22.533Z,14.69
2018-07-20T04:29:22.457Z,14.69
2018-07-20T04:30:22.410Z,14.69
2018-07-20T04:31:22.360Z,14.72
2018-07-20T04:32:22.315Z,14.85
2018-07-20T04:33:22.310Z,14.82
2018-07-20T04:34:22.222Z,14.79
2018-07-20T04:35:22.170Z,14.85
2018-07-20T04:36:22.144Z,14.85
2018-07-20T04:37:22.091Z,14.88
2018-07-20T04:38:22.061Z,14.91
2018-07-20T04:39:21.981Z,14.97
2018-07-20T04:40:21.936Z,15.02
2018-07-20T04:41:21.920Z,14.99
2018-07-20T04:42:21.840Z,15.04
2018-07-20T04:43:21.793Z,15.02
2018-07-20T04:44:21.745Z,15.10
2018-07-20T04:45:21.702Z,15.03
2018-07-20T04:46:21.690Z,15.02
2018-07-20T04:47:21.605Z,15.07
2018-07-20T04:48:21.558Z,15.21
2018-07-20T04:49:21.544Z,15.11
2018-07-20T04:50:21.501Z,15.17
2018-07-20T04:51:21.415Z,15.24
2018-07-20T04:52:21.368Z,15.22
2018-07-20T04:53:21.328Z,15.33
2018-07-20T04:54:21.279Z,15.42
2018-07-20T04:55:21.263Z,15.42
2018-07-20T04:56:21.183Z,15.51
2018-07-20T04:57:21.134Z,15.47
2018-07-20T04:58:21.088Z,15.58
2018-07-20T04:59:21.041Z,15.49
2018-07-20T05:00:21.035Z,15.55
2018-07-20T05:01:20.945Z,15.62
2018-07-20T05:02:20.897Z,15.58
2018-07-20T05:03:20.852Z,15.59
2018-07-20T05:04:20.807Z,15.67
2018-07-20T05:05:20.797Z,15.73
2018-07-20T05:06:20.765Z,15.80
2018-07-20T05:07:20.667Z,15.80
2018-07-20T05:08:20.621Z,15.80
2018-07-20T05:09:20.571Z,15.68
2018-07-20T05:10:20.523Z,15.65
2018-07-20T05:11:20.541Z,15.72
2018-07-20T05:12:20.469Z,15.79
2018-07-20T05:13:20.385Z,15.82
2018-07-20T05:14:20.336Z,15.83
2018-07-20T05:15:20.324Z,15.83
2018-07-20T05:16:20.246Z,15.94
2018-07-20T05:17:20.229Z,15.97
2018-07-20T05:18:20.150Z,16.02
2018-07-20T05:19:20.104Z,16.00
2018-07-20T05:20:20.101Z,16.10
2018-07-20T05:21:20.010Z,16.21
2018-07-20T05:22:19.964Z,16.20
2018-07-20T05:23:19.917Z,16.15
2018-07-20T05:24:19.906Z,16.15
2018-07-20T05:25:19.826Z,16.21
2018-07-20T05:26:19.777Z,16.20
2018-07-20T05:27:19.731Z,16.26
2018-07-20T05:28:19.717Z,16.16
2018-07-20T05:29:19.639Z,16.17
2018-07-20T05:30:19.588Z,16.29
2018-07-20T05:31:19.583Z,16.20
2018-07-20T05:32:19.498Z,16.26
2018-07-20T05:33:19.450Z,16.28
2018-07-20T05:34:19.406Z,16.23
2018-07-20T05:35:19.357Z,16.41
2018-07-20T05:36:19.346Z,16.36
2018-07-20T05:37:19.272Z,16.31
2018-07-20T05:38:19.250Z,16.33
2018-07-20T05:39:19.177Z,16.41
2018-07-20T05:40:19.124Z,16.39
2018-07-20T05:41:19.083Z,16.43
2018-07-20T05:42:19.067Z,16.41
2018-07-20T05:43:18.993Z,16.54
2018-07-20T05:44:18.982Z,16.54
2018-07-20T05:45:18.901Z,16.58
2018-07-20T05:46:18.848Z,16.58
2018-07-20T05:47:18.800Z,16.60
2018-07-20T05:48:18.754Z,16.60
2018-07-20T05:49:18.745Z,16.64
2018-07-20T05:50:18.696Z,16.64
2018-07-20T05:51:18.617Z,16.68
2018-07-20T05:52:18.575Z,16.66
2018-07-20T05:53:18.569Z,16.71
2018-07-20T05:54:18.480Z,16.75
2018-07-20T05:55:18.466Z,16.79
2018-07-20T05:56:18.387Z,16.76
2018-07-20T05:57:18.342Z,16.79
2018-07-20T05:58:18.292Z,16.89
2018-07-20T05:59:18.247Z,16.89
2018-07-20T06:00:18.234Z,16.84
2018-07-20T06:01:18.157Z,16.94
2018-07-20T06:02:18.113Z,16.99
2018-07-20T06:03:18.063Z,16.93
2018-07-20T06:04:18.021Z,16.87
2018-07-20T06:05:18.003Z,16.90
2018-07-20T06:06:17.930Z,17.02
2018-07-20T06:07:17.913Z,17.04
2018-07-20T06:08:17.865Z,17.08
2018-07-20T06:09:17.788Z,17.19
2018-07-20T06:10:17.773Z,17.11
2018-07-20T06:11:17.697Z,17.14
2018-07-20T06:12:17.655Z,17.22
2018-07-20T06:13:17.603Z,17.24
2018-07-20T06:14:17.658Z,17.30
2018-07-20T06:15:17.538Z,17.26
2018-07-20T06:16:17.484Z,17.36
2018-07-20T06:17:17.454Z,17.30
2018-07-20T06:18:17.382Z,17.38
2018-07-20T06:19:17.331Z,17.46
2018-07-20T06:20:17.287Z,17.52
2018-07-20T06:21:17.267Z,17.52
2018-07-20T06:22:17.192Z,17.49
2018-07-20T06:23:17.177Z,17.59
2018-07-20T06:24:17.109Z,17.57
2018-07-20T06:25:17.057Z,17.59
2018-07-20T06:26:17.039Z,17.68
2018-07-20T06:27:16.964Z,17.65
2018-07-20T06:28:16.918Z,17.76
2018-07-20T06:29:16.875Z,17.71
2018-07-20T06:30:16.828Z,17.82
2018-07-20T06:31:16.808Z,17.85
2018-07-20T06:32:16.738Z,17.94
2018-07-20T06:33:16.692Z,18.00
2018-07-20T06:34:16.646Z,18.01
2018-07-20T06:35:16.604Z,18.03
2018-07-20T06:36:16.594Z,18.07
2018-07-20T06:37:16.511Z,18.11
2018-07-20T06:38:16.467Z,18.22
2018-07-20T06:39:16.419Z,18.16
2018-07-20T06:40:16.375Z,18.23
2018-07-20T06:41:16.371Z,18.33
2018-07-20T06:42:16.285Z,18.37
2018-07-20T06:43:16.240Z,18.40
2018-07-20T06:44:16.196Z,18.45
2018-07-20T06:45:16.151Z,18.50
2018-07-20T06:46:16.142Z,18.49
2018-07-20T06:47:16.061Z,18.49
2018-07-20T06:48:16.053Z,18.59
2018-07-20T06:49:16.002Z,18.59
2018-07-20T06:50:15.924Z,18.66
2018-07-20T06:51:15.879Z,18.71
2018-07-20T06:52:15.832Z,18.73
2018-07-20T06:53:15.791Z,18.77
2018-07-20T06:54:15.791Z,18.81
2018-07-20T06:55:15.702Z,18.93
2018-07-20T06:56:15.655Z,18.92
2018-07-20T06:57:15.610Z,18.99
2018-07-20T06:58:15.565Z,19.08
2018-07-20T06:59:15.553Z,19.09
2018-07-20T07:00:15.477Z,19.12
2018-07-20T07:01:15.434Z,19.16
2018-07-20T07:02:15.389Z,19.21
2018-07-20T07:03:15.341Z,19.16
2018-07-20T07:04:15.328Z,19.22
2018-07-20T07:05:15.254Z,19.41
2018-07-20T07:06:15.213Z,19.36
2018-07-20T07:07:15.167Z,19.47
2018-07-20T07:08:15.121Z,19.49
2018-07-20T07:09:15.110Z,19.51
2018-07-20T07:10:15.056Z,19.62
2018-07-20T07:11:14.988Z,19.59
2018-07-20T07:12:14.943Z,19.73
2018-07-20T07:13:14.897Z,19.79
2018-07-20T07:14:14.893Z,19.79
2018-07-20T07:15:14.875Z,19.85
2018-07-20T07:16:14.767Z,19.94
2018-07-20T07:17:14.723Z,19.94
2018-07-20T07:18:14.679Z,20.00
2018-07-20T07:19:14.676Z,20.13
2018-07-20T07:20:14.591Z,20.18
2018-07-20T07:21:14.544Z,20.28
2018-07-20T07:22:14.508Z,20.22
2018-07-20T07:23:14.459Z,20.34
2018-07-20T07:24:14.457Z,20.34
2018-07-20T07:25:14.368Z,20.41
2018-07-20T07:26:14.327Z,20.44
2018-07-20T07:27:14.288Z,20.56
2018-07-20T07:28:14.238Z,20.59
2018-07-20T07:29:14.298Z,20.55
2018-07-20T07:30:14.149Z,20.66
2018-07-20T07:31:14.119Z,20.72
2018-07-20T07:32:14.070Z,20.82
2018-07-20T07:33:14.023Z,20.90
2018-07-20T07:34:14.007Z,20.97
2018-07-20T07:35:13.943Z,21.07
2018-07-20T07:36:13.894Z,21.06
2018-07-20T07:37:13.853Z,21.11
2018-07-20T07:38:13.834Z,21.18
2018-07-20T07:39:13.760Z,21.32
2018-07-20T07:40:13.720Z,21.30
2018-07-20T07:41:13.675Z,21.36
2018-07-20T07:42:13.668Z,21.37
2018-07-20T07:43:13.592Z,21.33
2018-07-20T07:44:13.547Z,21.36
2018-07-20T07:45:13.505Z,21.52
2018-07-20T07:46:13.462Z,21.55
2018-07-20T07:47:13.439Z,21.67
2018-07-20T07:48:13.408Z,21.67
2018-07-20T07:49:13.336Z,21.77
2018-07-20T07:50:13.322Z,21.83
2018-07-20T07:51:13.245Z,21.77
2018-07-20T07:52:13.207Z,21.96
2018-07-20T07:53:13.166Z,22.04
2018-07-20T07:54:13.151Z,22.14
2018-07-20T07:55:13.118Z,22.20
2018-07-20T07:56:13.033Z,22.29
2018-07-20T07:57:13.005Z,22.28
2018-07-20T07:58:12.951Z,22.41
2018-07-20T07:59:12.909Z,22.41
2018-07-20T08:00:12.898Z,22.63
2018-07-20T08:01:12.824Z,22.63
2018-07-20T08:02:12.782Z,22.80
2018-07-20T08:03:12.800Z,22.81
2018-07-20T08:04:12.752Z,22.88
2018-07-20T08:05:12.657Z,22.96
2018-07-20T08:06:12.613Z,23.10
2018-07-20T08:07:12.575Z,23.17
2018-07-20T08:08:12.528Z,23.32
2018-07-20T08:09:12.531Z,23.41
2018-07-20T08:10:12.482Z,23.41
2018-07-20T08:11:12.404Z,23.44
2018-07-20T08:12:12.363Z,23.61
2018-07-20T08:13:12.360Z,23.68
2018-07-20T08:14:12.276Z,23.78
2018-07-20T08:15:12.241Z,23.87
2018-07-20T08:16:12.195Z,24.01
2018-07-20T08:17:12.151Z,24.11
2018-07-20T08:18:12.173Z,24.16
2018-07-20T08:19:12.073Z,24.39
2018-07-20T08:20:12.031Z,24.32
2018-07-20T08:21:11.989Z,24.42
2018-07-20T08:22:11.944Z,24.42
2018-07-20T08:23:11.938Z,24.51
2018-07-20T08:24:11.866Z,24.61
2018-07-20T08:25:11.822Z,24.69
2018-07-20T08:26:11.783Z,24.88
2018-07-20T08:27:11.745Z,25.04
2018-07-20T08:28:11.734Z,25.13
2018-07-20T08:29:11.663Z,25.38
2018-07-20T08:30:11.672Z,25.48
2018-07-20T08:31:11.580Z,25.54
2018-07-20T08:32:11.542Z,25.69
2018-07-20T08:33:11.503Z,25.84
2018-07-20T08:34:11.458Z,26.13
2018-07-20T08:35:11.469Z,26.18
2018-07-20T08:36:11.378Z,26.43
2018-07-20T08:37:11.337Z,26.73
2018-07-20T08:38:11.295Z,26.93
2018-07-20T08:39:11.261Z,27.15
2018-07-20T08:40:11.250Z,27.29
2018-07-20T08:41:11.183Z,27.54
2018-07-20T08:42:11.138Z,27.83
2018-07-20T08:43:11.122Z,28.02
2018-07-20T08:44:11.059Z,28.29
2018-07-20T08:45:11.022Z,28.42
2018-07-20T08:46:10.980Z,28.70
2018-07-20T08:47:10.944Z,28.86
2018-07-20T08:48:10.939Z,29.02
2018-07-20T08:49:10.862Z,29.19
2018-07-20T08:50:10.826Z,29.38
2018-07-20T08:51:10.781Z,29.71
2018-07-20T08:52:10.745Z,29.75
2018-07-20T08:53:10.773Z,29.98
2018-07-20T08:54:10.760Z,30.15
2018-07-20T08:55:10.629Z,30.44
2018-07-20T08:56:10.590Z,30.57
2018-07-20T08:57:10.555Z,30.61
2018-07-20T08:58:10.543Z,30.85
2018-07-20T08:59:10.474Z,30.81
2018-07-20T09:00:10.435Z,30.43
2018-07-20T09:01:10.400Z,29.75
2018-07-20T09:02:10.390Z,29.26
2018-07-20T09:03:10.334Z,29.04
2018-07-20T09:04:10.281Z,28.75
2018-07-20T09:05:10.285Z,28.75
2018-07-20T09:06:10.207Z,28.52
2018-07-20T09:07:10.166Z,28.32
2018-07-20T09:08:10.129Z,28.14
2018-07-20T09:09:10.093Z,27.73
2018-07-20T09:10:10.086Z,27.35
2018-07-20T09:11:10.017Z,27.00
2018-07-20T09:12:09.975Z,27.11
2018-07-20T09:13:09.980Z,26.96
2018-07-20T09:14:09.902Z,26.78
2018-07-20T09:15:09.862Z,26.77
2018-07-20T09:16:09.826Z,26.75
2018-07-20T09:17:09.785Z,26.63
2018-07-20T09:18:09.776Z,26.36
2018-07-20T09:19:09.742Z,26.07
2018-07-20T09:20:09.671Z,26.05
2018-07-20T09:21:09.661Z,26.25
2018-07-20T09:22:09.595Z,26.56
2018-07-20T09:23:09.554Z,26.73
2018-07-20T09:24:09.518Z,26.97
2018-07-20T09:25:09.515Z,27.12
2018-07-20T09:26:09.436Z,27.35
2018-07-20T09:27:09.400Z,27.32
2018-07-20T09:28:09.396Z,27.21
2018-07-20T09:29:09.319Z,27.36
2018-07-20T09:30:09.317Z,27.44
2018-07-20T09:31:09.246Z,27.48
2018-07-20T09:32:09.210Z,27.39
2018-07-20T09:33:09.198Z,27.54
2018-07-20T09:34:09.157Z,27.47
2018-07-20T09:35:09.092Z,27.40
2018-07-20T09:36:09.055Z,27.64
2018-07-20T09:37:09.045Z,27.85
2018-07-20T09:38:08.970Z,27.82
2018-07-20T09:39:08.934Z,27.96
2018-07-20T09:40:08.932Z,28.04
2018-07-20T09:41:08.859Z,28.19
2018-07-20T09:42:08.817Z,28.23
2018-07-20T09:43:08.783Z,28.20
2018-07-20T09:44:08.789Z,28.29
2018-07-20T09:45:08.704Z,28.49
2018-07-20T09:46:08.669Z,28.41
2018-07-20T09:47:08.628Z,28.42
2018-07-20T09:48:08.589Z,28.05
2018-07-20T09:49:08.583Z,27.96
2018-07-20T09:50:08.510Z,27.87
2018-07-20T09:51:08.501Z,27.89
2018-07-20T09:52:08.433Z,27.78
2018-07-20T09:53:08.426Z,27.59
2018-07-20T09:54:08.358Z,27.52
2018-07-20T09:55:08.322Z,27.21
2018-07-20T09:56:08.280Z,27.21
2018-07-20T09:57:08.248Z,27.32
2018-07-20T09:58:08.239Z,27.64
2018-07-20T09:59:08.169Z,27.74
2018-07-20T10:00:08.128Z,27.98
2018-07-20T10:01:08.088Z,27.96
2018-07-20T10:02:08.098Z,28.04
2018-07-20T10:03:08.012Z,28.00
2018-07-20T10:04:07.973Z,28.05
2018-07-20T10:05:08.025Z,28.17
2018-07-20T10:06:07.899Z,28.02
2018-07-20T10:07:07.892Z,28.02
2018-07-20T10:08:07.851Z,28.02
2018-07-20T10:09:07.782Z,27.98
2018-07-20T10:10:07.744Z,27.80
2018-07-20T10:11:07.708Z,27.86
2018-07-20T10:12:07.667Z,27.90
2018-07-20T10:13:07.670Z,27.93
2018-07-20T10:14:07.595Z,27.93
2018-07-20T10:15:07.557Z,28.01
2018-07-20T10:16:07.519Z,28.12
2018-07-20T10:17:07.475Z,28.26
2018-07-20T10:18:07.470Z,28.23
2018-07-20T10:19:07.442Z,28.25
2018-07-20T10:20:07.404Z,27.89
2018-07-20T10:21:07.324Z,27.85
2018-07-20T10:22:07.285Z,28.01
2018-07-20T10:23:07.301Z,27.95
2018-07-20T10:24:07.240Z,28.04
2018-07-20T10:25:07.173Z,28.22
2018-07-20T10:26:07.163Z,28.38
2018-07-20T10:27:07.091Z,28.44
2018-07-20T10:28:07.059Z,28.67
2018-07-20T10:29:07.020Z,28.88
2018-07-20T10:30:06.983Z,28.82
2018-07-20T10:31:06.987Z,28.75
2018-07-20T10:32:06.903Z,29.01
2018-07-20T10:33:06.869Z,29.14
2018-07-20T10:34:06.826Z,29.17
2018-07-20T10:35:06.790Z,29.17
2018-07-20T10:36:06.784Z,29.14
2018-07-20T10:37:06.714Z,29.16
2018-07-20T10:38:06.676Z,29.34
2018-07-20T10:39:06.637Z,29.42
2018-07-20T10:40:06.639Z,29.53
2018-07-20T10:41:06.576Z,29.90
2018-07-20T10:42:06.524Z,29.98
2018-07-20T10:43:06.503Z,29.93
2018-07-20T10:44:06.450Z,29.87
2018-07-20T10:45:06.443Z,29.81
2018-07-20T10:46:06.370Z,29.78
2018-07-20T10:47:06.334Z,29.75
2018-07-20T10:48:06.299Z,29.66
2018-07-20T10:49:06.294Z,29.78
2018-07-20T10:50:06.224Z,29.65
2018-07-20T10:51:06.194Z,29.50
2018-07-20T10:52:06.166Z,29.41
2018-07-20T10:53:06.111Z,29.36
2018-07-20T10:54:06.107Z,29.24
2018-07-20T10:55:06.036Z,29.22
2018-07-20T10:56:05.999Z,29.02
2018-07-20T10:57:05.966Z,28.76
2018-07-20T10:58:05.949Z,28.74
2018-07-20T10:59:05.904Z,28.86
2018-07-20T11:00:05.848Z,28.93
2018-07-20T11:01:05.812Z,28.78
2018-07-20T11:02:05.819Z,28.67
2018-07-20T11:03:05.736Z,28.59
2018-07-20T11:04:05.698Z,28.44
2018-07-20T11:05:05.659Z,28.48
2018-07-20T11:06:05.627Z,28.57
2018-07-20T11:07:05.633Z,28.69
2018-07-20T11:08:05.601Z,28.52
2018-07-20T11:09:05.514Z,28.17
2018-07-20T11:10:05.486Z,28.17
2018-07-20T11:11:05.440Z,27.98
2018-07-20T11:12:05.441Z,27.98
2018-07-20T11:13:05.360Z,28.05
2018-07-20T11:14:05.328Z,27.85
2018-07-20T11:15:05.286Z,27.83
2018-07-20T11:16:05.250Z,27.74
2018-07-20T11:17:05.242Z,27.52
2018-07-20T11:18:05.176Z,27.65
2018-07-20T11:19:05.135Z,27.73
2018-07-20T11:20:05.099Z,27.96
2018-07-20T11:21:05.058Z,28.25
2018-07-20T11:22:05.055Z,28.32
2018-07-20T11:23:04.981Z,28.32
2018-07-20T11:24:04.947Z,28.44
2018-07-20T11:25:04.919Z,28.47
2018-07-20T11:26:04.870Z,28.67
2018-07-20T11:27:04.862Z,28.85
2018-07-20T11:28:04.822Z,28.67
2018-07-20T11:29:04.759Z,28.63
2018-07-20T11:30:04.741Z,28.62
2018-07-20T11:31:04.689Z,28.47
2018-07-20T11:32:04.674Z,28.23
2018-07-20T11:33:04.607Z,27.93
2018-07-20T11:34:04.567Z,27.77
2018-07-20T11:35:04.620Z,27.95
2018-07-20T11:36:04.497Z,28.17
2018-07-20T11:37:04.488Z,28.41
2018-07-20T11:38:05.098Z,28.72
2018-07-20T11:39:04.385Z,29.02
2018-07-20T11:40:04.375Z,29.16
2018-07-20T11:41:04.305Z,29.27
2018-07-20T11:42:04.283Z,29.42
2018-07-20T11:43:04.228Z,29.61
2018-07-20T11:44:04.194Z,29.88
2018-07-20T11:45:04.191Z,29.94
2018-07-20T11:46:04.115Z,30.03
2018-07-20T11:47:04.077Z,30.16
2018-07-20T11:48:04.044Z,30.34
2018-07-20T11:49:04.047Z,30.65
2018-07-20T11:50:03.970Z,30.68
2018-07-20T11:51:03.934Z,30.62
2018-07-20T11:52:03.895Z,30.70
2018-07-20T11:53:03.856Z,31.03
2018-07-20T11:54:03.852Z,31.22
2018-07-20T11:55:03.781Z,31.40
2018-07-20T11:56:03.795Z,31.58
2018-07-20T11:57:03.742Z,31.70
2018-07-20T11:58:03.674Z,32.00
2018-07-20T11:59:03.634Z,32.23
2018-07-20T12:00:03.595Z,32.51
2018-07-20T12:01:03.591Z,32.53
2018-07-20T12:02:03.523Z,32.51
2018-07-20T12:03:03.490Z,32.45
2018-07-20T12:04:03.449Z,32.09
2018-07-20T12:05:03.410Z,32.01
2018-07-20T12:06:03.427Z,31.99
2018-07-20T12:07:03.340Z,31.92
2018-07-20T12:08:03.301Z,31.92
2018-07-20T12:09:03.264Z,32.19
2018-07-20T12:10:03.232Z,32.43
2018-07-20T12:11:03.228Z,32.73
2018-07-20T12:12:03.160Z,32.83
2018-07-20T12:13:03.153Z,32.92
2018-07-20T12:14:03.099Z,33.17
2018-07-20T12:15:03.049Z,33.31
2018-07-20T12:16:03.014Z,33.39
2018-07-20T12:17:03.003Z,33.45
2018-07-20T12:18:02.942Z,33.47
2018-07-20T12:19:02.999Z,33.22
2018-07-20T12:20:02.866Z,32.96
2018-07-20T12:21:02.831Z,32.78
2018-07-20T12:22:02.800Z,32.85
2018-07-20T12:23:02.763Z,32.83
2018-07-20T12:24:02.772Z,32.90
2018-07-20T12:25:02.690Z,33.00
2018-07-20T12:26:02.716Z,32.89
2018-07-20T12:27:02.619Z,32.55
2018-07-20T12:28:02.618Z,32.21
2018-07-20T12:29:02.549Z,32.19
2018-07-20T12:30:02.514Z,32.07
2018-07-20T12:31:02.490Z,31.94
2018-07-20T12:32:02.440Z,31.85
2018-07-20T12:33:02.438Z,31.69
2018-07-20T12:34:02.440Z,31.61
2018-07-20T12:35:02.332Z,31.52
2018-07-20T12:36:02.345Z,31.07
2018-07-20T12:37:02.261Z,30.34
2018-07-20T12:38:02.262Z,29.97
2018-07-20T12:39:02.189Z,29.78
2018-07-20T12:40:02.154Z,30.16
2018-07-20T12:41:02.170Z,30.23
2018-07-20T12:42:02.083Z,29.93
2018-07-20T12:43:02.089Z,29.95
2018-07-20T12:44:02.009Z,29.94
2018-07-20T12:45:02.011Z,29.90
2018-07-20T12:46:01.982Z,29.90
2018-07-20T12:47:01.899Z,29.95
2018-07-20T12:48:01.866Z,30.02
2018-07-20T12:49:01.881Z,30.02
2018-07-20T12:50:01.824Z,30.12
2018-07-20T12:51:01.805Z,30.28
2018-07-20T12:52:01.726Z,30.25